• Join FlightAware (Why Join?)
  • Login
  • US Flag 
01:49PM EDT


 

Airport Tracker/Info


-or-


 

Live Flight TrackerFlight Track Log ✈ FLG3435 ✈ 02-Sep-2013 ✈ KMSP - KPSC

Flight Track Log - Related Links

Times and Time Zones

All times are in EDT time to prevent confusion due to time zone crossing. See the FLG3435 flight status page for this flight to view local times or setup timezone preferences in your user account.

Time Position Orientation Groundspeed Altitude Reporting Facility
EDT Latitude Longitude Course Direction KTS MPH feet Rate Location/Type
11:19PM 44.8667 -93.1667 84° East 164 189 2,100  Level Minneapolis TRACON
11:20PM 44.8711 -93.1067 84° East 183 211 3,300 1,560 Climbing Minneapolis Center
11:21PM 44.9147 -93.0497 43° Northeast 251 289 5,000 2,160 Climbing Minneapolis Center
11:22PM 44.9742 -93.0942 332° Northwest 266 306 7,800 2,580 Climbing Minneapolis Center
11:23PM 45.0103 -93.1883 299° West 275 316 10,400 1,860 Climbing Minneapolis Center
11:24PM 45.0200 -93.3086 277° West 318 366 11,700 1,680 Climbing Minneapolis Center
11:25PM 45.0286 -93.4392 275° West 336 387 13,900 1,980 Climbing Minneapolis Center
11:26PM 45.0367 -93.5733 275° West 346 398 15,800 1,860 Climbing Minneapolis Center
11:27PM 45.0453 -93.7097 275° West 353 406 17,700 1,560 Climbing Minneapolis Center
11:28PM 45.0522 -93.8497 274° West 357 411 19,000 1,560 Climbing Minneapolis Center
11:29PM 45.0633 -94.0278 275° West 377 434 20,900 1,620 Climbing Minneapolis Center
11:30PM 45.0728 -94.1767 275° West 381 438 22,400 1,380 Climbing Minneapolis Center
11:31PM 45.0822 -94.3283 275° West 386 444 23,800 1,320 Climbing Minneapolis Center
11:32PM 45.0911 -94.4825 275° West 392 451 25,100 1,080 Climbing Minneapolis Center
11:33PM 45.1069 -94.6497 278° West 396 456 26,100 960 Climbing Minneapolis Center
11:34PM 45.1233 -94.8083 278° West 404 465 27,100 1,080 Climbing Minneapolis Center
11:35PM 45.1394 -94.9667 278° West 407 468 28,300 960 Climbing Minneapolis Center
11:36PM 45.1550 -95.1267 278° West 410 472 29,100 840 Climbing Minneapolis Center
11:37PM 45.1703 -95.2914 278° West 419 482 30,000 1,320 Climbing Minneapolis Center
11:38PM 45.1850 -95.4514 277° West 416 479 31,900 1,620 Climbing Minneapolis Center
11:39PM 45.1997 -95.6025 278° West 398 458 33,300 1,020 Climbing Minneapolis Center
11:40PM 45.2119 -95.7503 277° West 386 444 34,000 300 Climbing Minneapolis Center
11:42PM 45.2267 -95.9050 278° West 395 455 34,000  Level Minneapolis Center
11:43PM 45.2442 -96.1011 277° West 417 480 34,000  Level Minneapolis Center
11:44PM 45.2581 -96.2622 277° West 416 479 34,000  Level Minneapolis Center
11:45PM 45.2733 -96.4492 277° West 402 463 34,000  Level Minneapolis Center
11:46PM 45.2864 -96.6011 277° West 394 453 34,000  Level Minneapolis Center
11:47PM 45.2983 -96.7561 276° West 396 456 34,000  Level Minneapolis Center
11:48PM 45.3114 -96.9131 277° West 402 463 34,000  Level Minneapolis Center
11:49PM 45.3236 -97.0711 276° West 403 464 34,000  Level Minneapolis Center
11:50PM 45.3361 -97.2294 276° West 406 467 34,000  Level Minneapolis Center
11:51PM 45.3481 -97.3908 276° West 410 472 34,000  Level Minneapolis Center
11:52PM 45.3600 -97.5517 276° West 411 473 34,000  Level Minneapolis Center
11:53PM 45.3722 -97.7142 276° West 414 476 34,000  Level Minneapolis Center
11:54PM 45.3839 -97.8764 276° West 415 478 34,000  Level Minneapolis Center
11:55PM 45.3956 -98.0392 276° West 416 479 34,000  Level Minneapolis Center
11:56PM 45.4078 -98.2108 276° West 415 478 34,000  Level Minneapolis Center
11:57PM 45.4192 -98.3747 276° West 417 480 34,000  Level Minneapolis Center
11:58PM 45.4458 -98.5331 284° West 414 476 34,000  Level Minneapolis Center
11:59PM 45.4711 -98.6933 283° West 415 478 34,000  Level Minneapolis Center
12:00AM 45.4969 -98.8542 283° West 417 480 34,000  Level Minneapolis Center
12:01AM 45.5222 -99.0144 283° West 417 480 34,000  Level Minneapolis Center
12:02AM 45.5522 -99.2083 283° West 419 482 34,000  Level Minneapolis Center
12:03AM 45.5769 -99.3708 282° West 420 483 34,000  Level Minneapolis Center
12:04AM 45.6019 -99.5333 282° West 421 484 34,000  Level Minneapolis Center
12:05AM 45.6267 -99.6969 282° West 422 486 34,000  Level Minneapolis Center
12:06AM 45.6508 -99.8614 282° West 424 488 34,000  Level Minneapolis Center
12:07AM 45.6756 -100.0242 282° West 424 488 34,000  Level Minneapolis Center
12:08AM 45.6992 -100.1883 282° West 423 487 34,000  Level Minneapolis Center
12:09AM 45.7231 -100.3539 282° West 426 490 34,000  Level Minneapolis Center
12:10AM 45.7464 -100.5206 281° West 429 494 34,000  Level Minneapolis Center
12:11AM 45.7703 -100.6872 282° West 428 493 34,000  Level Minneapolis Center
12:12AM 45.7933 -100.8522 281° West 427 491 34,000  Level Minneapolis Center
12:13AM 45.8164 -101.0153 282° West 422 486 34,000  Level Minneapolis Center
12:14AM 45.8383 -101.1800 281° West 422 486 34,000  Level Minneapolis Center
12:15AM 45.8619 -101.3411 282° West 418 481 34,000  Level Minneapolis Center
12:16AM 45.8828 -101.5022 281° West 413 475 34,000  Level Minneapolis Center
12:17AM 45.9042 -101.6636 281° West 413 475 34,000  Level Minneapolis Center
12:18AM 45.9292 -101.8572 281° West 412 474 34,000  Level Minneapolis Center
12:19AM 45.9506 -102.0183 281° West 412 474 34,000  Level Minneapolis Center
12:20AM 45.9711 -102.1800 280° West 412 474 34,000  Level Minneapolis Center
12:21AM 45.9917 -102.3403 281° West 411 473 34,000  Level Minneapolis Center
12:22AM 46.0125 -102.5017 281° West 411 473 34,000  Level Minneapolis Center
12:23AM 46.0325 -102.6625 280° West 410 472 34,000  Level Minneapolis Center
12:24AM 46.0508 -102.8186 280° West 411 473 34,000  Level Minneapolis Center
12:25AM 46.0708 -102.9817 280° West 414 476 34,000  Level Minneapolis Center
12:26AM 46.0908 -103.1483 280° West 418 481 34,000  Level Minneapolis Center
12:27AM 46.1089 -103.3147 279° West 420 483 34,000  Level Minneapolis Center
12:28AM 46.1289 -103.4856 280° West 428 493 34,000  Level Minneapolis Center
12:29AM 46.1478 -103.6553 279° West 429 494 34,000  Level Minneapolis Center
12:30AM 46.1667 -103.8253 279° West 429 494 34,000  Level Minneapolis Center
12:31AM 46.1872 -104.0269 278° West 429 494 34,000  Level Salt Lake Center
12:32AM 46.2050 -104.1983 279° West 431 496 34,000  Level Salt Lake Center
12:33AM 46.2231 -104.3692 279° West 431 496 34,000  Level Salt Lake Center
12:34AM 46.2425 -104.5500 279° West 433 498 34,000  Level Salt Lake Center
12:35AM 46.2592 -104.7208 278° West 432 497 34,000  Level Salt Lake Center
12:36AM 46.2778 -104.8950 279° West 437 503 34,000  Level Salt Lake Center
12:37AM 46.2942 -105.0653 278° West 435 501 34,000  Level Salt Lake Center
12:38AM 46.3122 -105.2375 279° West 434 499 34,000  Level Salt Lake Center
12:39AM 46.3278 -105.4075 278° West 432 497 34,000  Level Salt Lake Center
12:40AM 46.3489 -105.6144 278° West 433 498 34,000  Level Salt Lake Center
12:42AM 46.3664 -105.7850 279° West 433 498 34,000  Level Salt Lake Center
12:43AM 46.3825 -105.9525 278° West 430 495 34,000  Level Salt Lake Center
12:44AM 46.3933 -106.1225 275° West 428 493 34,000  Level Salt Lake Center
12:45AM 46.4031 -106.2919 275° West 427 491 34,000  Level Salt Lake Center
12:46AM 46.4139 -106.4619 275° West 427 491 34,000  Level Salt Lake Center
12:47AM 46.4233 -106.6300 275° West 425 489 34,000  Level Salt Lake Center
12:48AM 46.4328 -106.7978 275° West 423 487 34,000  Level Salt Lake Center
12:49AM 46.4428 -106.9678 275° West 423 487 34,000  Level Salt Lake Center
12:50AM 46.4528 -107.1361 275° West 423 487 34,000  Level Salt Lake Center
12:51AM 46.4611 -107.3050 274° West 422 486 34,000  Level Salt Lake Center
12:52AM 46.4703 -107.4747 275° West 423 487 34,000  Level Salt Lake Center
12:53AM 46.4806 -107.6794 274° West 419 482 34,000  Level Salt Lake Center
12:54AM 46.4892 -107.8483 274° West 420 483 34,000  Level Salt Lake Center
12:55AM 46.4967 -108.0167 274° West 421 484 34,000  Level Salt Lake Center
12:56AM 46.5039 -108.1858 274° West 422 486 34,000  Level Salt Lake Center
12:57AM 46.5111 -108.3550 274° West 422 486 34,000  Level Salt Lake Center
12:58AM 46.5186 -108.5242 274° West 422 486 34,000  Level Salt Lake Center
12:59AM 46.5253 -108.6936 273° West 424 488 34,000  Level Salt Lake Center
01:00AM 46.5317 -108.8622 273° West 422 486 34,000 180 Level Salt Lake Center
01:01AM 46.5386 -109.0303 273° West 420 483 34,400 720 Climbing Salt Lake Center
01:02AM 46.5436 -109.1978 273° West 418 481 35,500 780 Climbing Salt Lake Center
01:03AM 46.5508 -109.3631 274° West 413 475 36,000 240 Climbing Salt Lake Center
01:04AM 46.5539 -109.5325 272° West 418 481 36,000  Level Salt Lake Center
01:05AM 46.5597 -109.7036 273° West 424 488 36,000  Level Salt Lake Center
01:06AM 46.5661 -109.9108 273° West 429 494 36,000  Level Salt Lake Center
01:07AM 46.5706 -110.0803 272° West 424 488 36,000  Level Salt Lake Center
01:08AM 46.5756 -110.2458 273° West 415 478 36,000  Level Salt Lake Center
01:09AM 46.5800 -110.4114 272° West 413 475 36,000  Level Salt Lake Center
01:10AM 46.5833 -110.5756 272° West 409 471 36,000  Level Salt Lake Center
01:11AM 46.5867 -110.7264 272° West 402 463 36,000  Level Salt Lake Center
01:12AM 46.5900 -110.8900 272° West 403 464 36,000  Level Salt Lake Center
01:13AM 46.5933 -111.0558 272° West 408 470 36,000  Level Salt Lake Center
01:14AM 46.5967 -111.2250 272° West 416 479 36,000  Level Salt Lake Center
01:15AM 46.5986 -111.3953 271° West 420 483 36,000  Level Salt Lake Center
01:16AM 46.6014 -111.5681 271° West 425 489 36,000  Level Salt Lake Center
01:17AM 46.6039 -111.7383 271° West 423 487 36,000  Level Salt Lake Center
01:18AM 46.6064 -111.9058 271° West 418 481 36,000  Level Salt Lake Center
01:19AM 46.6050 -112.0728 269° West 414 476 36,000  Level Salt Lake Center
01:20AM 46.6014 -112.2386 268° West 411 473 36,000  Level Salt Lake Center
01:21AM 46.5972 -112.4372 268° West 410 472 36,000  Level Salt Lake Center
01:22AM 46.5933 -112.6031 268° West 410 472 36,000  Level Salt Lake Center
01:23AM 46.5897 -112.7692 268° West 412 474 36,000  Level Salt Lake Center
01:24AM 46.5858 -112.9356 268° West 413 475 36,000  Level Salt Lake Center
01:25AM 46.5814 -113.1028 268° West 414 476 36,000  Level Salt Lake Center
01:26AM 46.5772 -113.2700 268° West 415 478 36,000  Level Salt Lake Center
01:27AM 46.5725 -113.4258 268° West 419 482 36,000  Level Salt Lake Center
01:28AM 46.5678 -113.5942 268° West 418 481 36,000  Level Salt Lake Center
01:29AM 46.5619 -113.7625 267° West 418 481 36,000  Level Salt Lake Center
01:30AM 46.5558 -113.9294 267° West 415 478 36,000  Level Salt Lake Center
01:31AM 46.5503 -114.0969 267° West 417 480 36,000  Level Salt Lake Center
01:32AM 46.5444 -114.2653 267° West 417 480 36,000  Level Salt Lake Center
01:33AM 46.5383 -114.4331 267° West 416 479 36,000  Level Salt Lake Center
01:34AM 46.5317 -114.6003 267° West 417 480 36,000  Level Salt Lake Center
01:35AM 46.5236 -114.8031 267° West 417 480 36,000  Level Salt Lake Center
01:36AM 46.5192 -114.9042 266° West 417 480 36,000  Level Seattle Center
01:37AM 46.5122 -115.0617 266° West 419 482 36,000  Level Seattle Center
01:38AM 46.5056 -115.2303 267° West 419 482 36,000  Level Seattle Center
01:39AM 46.4967 -115.3983 266° West 420 483 36,000  Level Seattle Center
01:40AM 46.4900 -115.5653 267° West 417 480 36,000  Level Seattle Center
01:41AM 46.4814 -115.7336 266° West 417 480 36,000  Level Seattle Center
01:42AM 46.4728 -115.8986 266° West 414 476 36,000  Level Seattle Center
01:43AM 46.4639 -116.0653 266° West 415 478 36,000  Level Seattle Center
01:44AM 46.4556 -116.2317 266° West 414 476 36,000  Level Seattle Center
01:45AM 46.4467 -116.3972 266° West 411 473 36,000  Level Seattle Center
01:46AM 46.4372 -116.5642 265° West 414 476 36,000  Level Seattle Center
01:47AM 46.4269 -116.7308 265° West 416 479 36,000  Level Seattle Center
01:48AM 46.4175 -116.8961 265° West 413 475 36,000  Level Seattle Center
01:49AM 46.4078 -117.0625 265° West 414 476 36,000 -180 Level Seattle Center
01:50AM 46.3978 -117.2269 265° West 411 473 35,700 -1,500 Descending Seattle Center
01:51AM 46.3881 -117.3886 265° West 405 466 33,000 -3,180 Descending Seattle Center
01:52AM 46.3750 -117.5789 264° West 398 458 29,300 -3,480 Descending Seattle Center
01:53AM 46.3622 -117.7469 264° West 416 479 26,000 -3,240 Descending Seattle Center
01:54AM 46.3519 -117.9158 265° West 421 484 22,800 -3,180 Descending Seattle Center
01:55AM 46.3406 -118.0731 264° West 405 466 19,600 -3,180 Descending Seattle Center
01:56AM 46.3411 -118.2250 270° West 382 440 16,400 -2,880 Descending Seattle Center
01:57AM 46.3611 -118.3731 281° West 374 430 13,900 -2,340 Descending Seattle Center
01:58AM 46.3794 -118.5119 281° West 354 407 11,800 -2,040 Descending Seattle Center
01:59AM 46.3964 -118.6378 281° West 320 368 9,800 -1,800 Descending Seattle Center
02:00AM 46.4108 -118.7461 281° West 278 320 8,200 -1,620 Descending Seattle Center